createdAt,value
2023-02-28T00:01:40.013Z,6.60
2023-02-28T00:04:10.658Z,7.03
2023-02-28T00:06:41.702Z,4.60
2023-02-28T00:09:10.476Z,5.47
2023-02-28T00:11:41.788Z,8.73
2023-02-28T00:14:10.517Z,6.57
2023-02-28T00:16:39.097Z,7.50
2023-02-28T00:19:08.256Z,6.90
2023-02-28T00:21:36.842Z,6.83
2023-02-28T00:24:07.011Z,5.37
2023-02-28T00:26:36.633Z,7.07
2023-02-28T00:29:05.054Z,5.87
2023-02-28T00:31:34.980Z,8.40
2023-02-28T00:34:05.130Z,4.57
2023-02-28T00:36:33.586Z,4.70
2023-02-28T00:39:02.018Z,4.90
2023-02-28T00:41:36.194Z,4.53
2023-02-28T00:44:04.898Z,5.23
2023-02-28T00:46:33.277Z,6.77
2023-02-28T00:49:03.598Z,8.07
2023-02-28T00:51:33.609Z,4.73
2023-02-28T00:54:02.206Z,4.50
2023-02-28T00:56:32.525Z,4.93
2023-02-28T00:59:05.407Z,5.77
2023-02-28T01:01:33.850Z,4.73
2023-02-28T01:04:02.475Z,5.57
2023-02-28T01:06:31.189Z,6.00
2023-02-28T01:08:59.585Z,6.40
2023-02-28T01:11:30.086Z,8.43
2023-02-28T01:13:58.995Z,4.50
2023-02-28T01:16:29.090Z,5.77
2023-02-28T01:18:57.591Z,4.20
2023-02-28T01:21:26.341Z,6.03
2023-02-28T01:23:54.746Z,4.80
2023-02-28T01:26:23.868Z,5.20
2023-02-28T01:28:52.982Z,7.43
2023-02-28T01:31:21.861Z,8.23
2023-02-28T01:33:51.664Z,5.97
2023-02-28T01:36:21.428Z,5.53
2023-02-28T01:38:50.202Z,10.93
2023-02-28T01:41:19.234Z,7.37
2023-02-28T01:44:05.317Z,12.60
2023-02-28T01:46:34.195Z,5.23
2023-02-28T01:49:06.270Z,4.40
2023-02-28T01:51:36.411Z,4.50
2023-02-28T01:54:05.944Z,8.30
2023-02-28T01:56:35.993Z,9.03
2023-02-28T01:59:04.621Z,5.37
2023-02-28T02:01:33.106Z,6.50
2023-02-28T02:04:02.183Z,7.10
2023-02-28T02:06:32.318Z,5.37
2023-02-28T02:09:00.899Z,7.80
2023-02-28T02:11:31.232Z,7.80
2023-02-28T02:14:10.520Z,6.07
2023-02-28T02:16:41.399Z,9.17
2023-02-28T02:19:14.586Z,6.23
2023-02-28T02:21:57.878Z,8.80
2023-02-28T02:24:34.702Z,7.07
2023-02-28T02:27:17.196Z,6.07
2023-02-28T02:29:50.047Z,7.07
2023-02-28T02:32:31.885Z,7.77
2023-02-28T02:35:04.376Z,7.73
2023-02-28T02:37:34.765Z,9.73
2023-02-28T02:40:05.668Z,7.53
2023-02-28T02:42:36.434Z,6.07
2023-02-28T02:45:06.504Z,6.87
2023-02-28T02:47:35.194Z,6.40
2023-02-28T02:50:05.746Z,5.60
2023-02-28T02:52:35.936Z,5.57
2023-02-28T02:55:04.427Z,10.33
2023-02-28T02:57:33.462Z,7.50
2023-02-28T03:00:02.064Z,9.83
2023-02-28T03:02:35.456Z,6.73
2023-02-28T03:05:05.939Z,7.07
2023-02-28T03:07:34.467Z,6.57
2023-02-28T03:10:02.867Z,8.90
2023-02-28T03:12:33.821Z,9.40
2023-02-28T03:15:04.999Z,11.97
2023-02-28T03:17:40.405Z,10.67
2023-02-28T03:20:12.954Z,5.90
2023-02-28T03:22:59.687Z,7.27
2023-02-28T03:25:32.231Z,9.13
2023-02-28T03:28:05.468Z,6.53
2023-02-28T03:30:36.170Z,6.97
2023-02-28T03:33:06.904Z,8.30
2023-02-28T03:35:37.421Z,9.33
2023-02-28T03:38:06.775Z,9.53
2023-02-28T03:40:35.765Z,10.10
2023-02-28T03:43:06.292Z,9.33
2023-02-28T03:45:35.514Z,10.23
2023-02-28T03:48:04.295Z,8.50
2023-02-28T03:50:34.036Z,7.00
2023-02-28T03:53:06.641Z,8.93
2023-02-28T03:55:36.250Z,8.93
2023-02-28T03:58:04.835Z,11.33
2023-02-28T04:00:33.913Z,9.77
2023-02-28T04:03:02.532Z,8.20
2023-02-28T04:05:31.480Z,9.90
2023-02-28T04:08:08.070Z,9.23
2023-02-28T04:10:36.556Z,9.80
2023-02-28T04:13:05.048Z,8.03
2023-02-28T04:15:33.662Z,9.20
2023-02-28T04:18:02.189Z,10.33
2023-02-28T04:20:31.900Z,12.13
2023-02-28T04:23:00.501Z,11.23
2023-02-28T04:25:30.516Z,9.60
2023-02-28T04:27:59.627Z,12.47
2023-02-28T04:30:28.388Z,10.13
2023-02-28T04:32:56.930Z,10.03
2023-02-28T04:35:25.508Z,11.67
2023-02-28T04:37:54.059Z,9.77
2023-02-28T04:40:22.911Z,9.00
2023-02-28T04:42:52.766Z,9.37
2023-02-28T04:45:21.375Z,9.77
2023-02-28T04:47:50.129Z,9.70
2023-02-28T04:50:18.934Z,13.20
2023-02-28T04:52:47.404Z,11.63
2023-02-28T04:55:15.861Z,11.17
2023-02-28T04:57:44.354Z,8.93
2023-02-28T05:00:17.767Z,9.87
2023-02-28T05:02:46.413Z,9.10
2023-02-28T05:05:19.134Z,10.93
2023-02-28T05:07:47.588Z,10.03
2023-02-28T05:10:16.173Z,12.57
2023-02-28T05:12:44.635Z,12.67
2023-02-28T05:15:15.311Z,10.47
2023-02-28T05:17:43.838Z,10.97
2023-02-28T05:20:16.199Z,11.73
2023-02-28T05:22:45.085Z,11.67
2023-02-28T05:25:13.902Z,11.90
2023-02-28T05:27:42.558Z,9.57
2023-02-28T05:30:12.472Z,11.03
2023-02-28T05:32:43.852Z,9.87
2023-02-28T05:35:12.510Z,12.67
2023-02-28T05:37:40.932Z,11.37
2023-02-28T05:40:11.368Z,10.80
2023-02-28T05:42:39.883Z,12.10
2023-02-28T05:45:09.254Z,11.50
2023-02-28T05:47:38.080Z,17.83
2023-02-28T05:50:10.387Z,11.77
2023-02-28T05:52:38.842Z,11.77
2023-02-28T05:55:07.805Z,13.57
2023-02-28T05:57:36.333Z,14.70
2023-02-28T06:00:05.424Z,11.70
2023-02-28T06:02:34.245Z,15.47
2023-02-28T06:05:03.009Z,11.57
2023-02-28T06:07:32.921Z,11.10
2023-02-28T06:10:01.979Z,12.63
2023-02-28T06:12:30.781Z,13.70
2023-02-28T06:14:59.364Z,16.47
2023-02-28T06:17:28.090Z,15.23
2023-02-28T06:19:56.564Z,12.93
2023-02-28T06:22:25.102Z,13.73
2023-02-28T06:24:55.698Z,12.47
2023-02-28T06:27:24.622Z,15.70
2023-02-28T06:29:56.417Z,13.23
2023-02-28T06:32:24.937Z,12.73
2023-02-28T06:34:54.038Z,15.10
2023-02-28T06:37:32.392Z,14.37
2023-02-28T06:40:03.038Z,12.40
2023-02-28T06:42:33.954Z,20.50
2023-02-28T06:45:04.338Z,13.07
2023-02-28T06:47:34.052Z,12.60
2023-02-28T06:50:03.478Z,13.30
2023-02-28T06:52:31.961Z,14.27
2023-02-28T06:55:02.080Z,13.27
2023-02-28T06:57:31.957Z,10.20
2023-02-28T07:00:01.075Z,11.33
2023-02-28T07:02:29.603Z,9.50
2023-02-28T07:04:58.121Z,9.90
2023-02-28T07:07:28.861Z,9.47
2023-02-28T07:09:57.594Z,9.97
2023-02-28T07:12:27.787Z,8.87
2023-02-28T07:14:56.985Z,10.47
2023-02-28T07:17:25.492Z,12.13
2023-02-28T07:19:53.994Z,13.30
2023-02-28T07:22:22.593Z,7.80
2023-02-28T07:24:51.694Z,8.43
2023-02-28T07:27:25.046Z,8.33
2023-02-28T07:29:55.777Z,8.13
2023-02-28T07:32:24.687Z,9.37
2023-02-28T07:34:53.716Z,7.20
2023-02-28T07:37:22.445Z,14.53
2023-02-28T07:39:50.859Z,9.57
2023-02-28T07:42:19.310Z,10.53
2023-02-28T07:44:47.826Z,9.37
2023-02-28T07:47:17.736Z,7.03
2023-02-28T07:49:46.348Z,9.10
2023-02-28T07:52:15.085Z,6.70
2023-02-28T07:54:43.498Z,9.23
2023-02-28T07:57:11.907Z,6.70
2023-02-28T07:59:40.839Z,7.77
2023-02-28T08:02:09.676Z,7.40
2023-02-28T08:04:39.588Z,8.93
2023-02-28T08:07:09.199Z,8.77
2023-02-28T08:09:38.003Z,9.20
2023-02-28T08:12:06.800Z,8.47
2023-02-28T08:14:35.674Z,7.97
2023-02-28T08:17:05.027Z,6.97
2023-02-28T08:19:33.825Z,8.27
2023-02-28T08:22:03.979Z,8.07
2023-02-28T08:24:32.533Z,10.43
2023-02-28T08:27:01.197Z,10.50
2023-02-28T08:29:31.211Z,7.93
2023-02-28T08:32:00.329Z,9.70
2023-02-28T08:34:28.764Z,10.23
2023-02-28T08:36:57.204Z,11.33
2023-02-28T08:39:27.145Z,12.07
2023-02-28T08:42:05.781Z,10.83
2023-02-28T08:44:36.027Z,9.43
2023-02-28T08:47:04.641Z,8.73
2023-02-28T08:49:33.010Z,11.40
2023-02-28T08:52:01.519Z,9.13
2023-02-28T08:54:33.190Z,8.57
2023-02-28T08:57:01.593Z,8.53
2023-02-28T08:59:30.041Z,9.00
2023-02-28T09:01:58.594Z,10.30
2023-02-28T09:04:27.253Z,9.73
2023-02-28T09:06:55.834Z,8.90
2023-02-28T09:09:24.374Z,7.33
2023-02-28T09:11:54.217Z,10.30
2023-02-28T09:14:23.028Z,12.77
2023-02-28T09:16:54.503Z,11.37
2023-02-28T09:19:24.043Z,8.27
2023-02-28T09:21:53.493Z,9.47
2023-02-28T09:24:22.053Z,8.20
2023-02-28T09:27:03.773Z,6.97
2023-02-28T09:29:35.008Z,6.07
2023-02-28T09:32:03.618Z,9.40
2023-02-28T09:34:32.605Z,8.57
2023-02-28T09:37:01.049Z,9.83
2023-02-28T09:39:30.095Z,9.67
2023-02-28T09:41:58.815Z,8.43
2023-02-28T09:44:30.319Z,7.47
2023-02-28T09:47:01.560Z,5.83
2023-02-28T09:49:32.165Z,5.77
2023-02-28T09:52:01.674Z,7.23
2023-02-28T09:54:30.829Z,6.90
2023-02-28T09:56:59.804Z,4.97
2023-02-28T09:59:41.062Z,7.37
2023-02-28T10:02:14.867Z,8.23
2023-02-28T10:04:45.424Z,5.47
2023-02-28T10:07:19.424Z,6.17
2023-02-28T10:09:48.388Z,5.97
2023-02-28T10:12:17.006Z,5.20
2023-02-28T10:14:46.792Z,6.83
2023-02-28T10:17:16.815Z,10.23
2023-02-28T10:19:46.008Z,7.53
2023-02-28T10:22:15.170Z,7.93
2023-02-28T10:24:43.857Z,6.87
2023-02-28T10:27:15.790Z,9.10
2023-02-28T10:29:45.668Z,10.33
2023-02-28T10:32:14.535Z,8.93
2023-02-28T10:34:44.337Z,5.80
2023-02-28T10:37:12.743Z,6.13
2023-02-28T10:39:41.600Z,5.27
2023-02-28T10:42:21.784Z,6.43
2023-02-28T10:44:50.454Z,6.53
2023-02-28T10:47:19.203Z,6.97
2023-02-28T10:49:53.730Z,7.37
2023-02-28T10:52:36.424Z,6.13
2023-02-28T10:55:17.165Z,5.23
2023-02-28T10:57:45.479Z,10.50
2023-02-28T11:00:17.089Z,5.00
2023-02-28T11:02:47.601Z,6.03
2023-02-28T11:05:28.045Z,7.20
2023-02-28T11:07:56.694Z,6.20
2023-02-28T11:10:26.971Z,6.07
2023-02-28T11:12:59.124Z,5.30
2023-02-28T11:15:28.914Z,6.10
2023-02-28T11:17:57.632Z,5.73
2023-02-28T11:20:26.566Z,4.57
2023-02-28T11:22:57.054Z,5.87
2023-02-28T11:25:25.883Z,4.63
2023-02-28T11:27:54.350Z,4.93
2023-02-28T11:30:26.631Z,3.90
2023-02-28T11:32:57.560Z,4.30
2023-02-28T11:35:26.997Z,4.60
2023-02-28T11:37:57.180Z,4.30
2023-02-28T11:40:27.893Z,4.27
2023-02-28T11:42:58.670Z,8.30
2023-02-28T11:45:32.523Z,3.90
2023-02-28T11:48:02.888Z,4.93
2023-02-28T11:50:46.096Z,4.90
2023-02-28T11:53:20.097Z,4.77
2023-02-28T11:55:49.321Z,5.87
2023-02-28T11:58:20.202Z,4.80
2023-02-28T12:00:53.338Z,4.40
2023-02-28T12:03:26.252Z,3.83
2023-02-28T12:05:56.944Z,3.73
2023-02-28T12:08:32.139Z,7.20
2023-02-28T12:11:03.545Z,3.53
2023-02-28T12:13:32.576Z,3.30
2023-02-28T12:16:04.245Z,3.40
2023-02-28T12:18:37.819Z,6.10
2023-02-28T12:21:07.805Z,3.40
2023-02-28T12:23:53.862Z,4.40
2023-02-28T12:26:24.533Z,3.50
2023-02-28T12:28:54.877Z,3.23
2023-02-28T12:31:24.666Z,3.53
2023-02-28T12:33:54.166Z,3.97
2023-02-28T12:36:24.993Z,3.00
2023-02-28T12:38:57.215Z,2.67
2023-02-28T12:41:32.620Z,5.30
2023-02-28T12:44:05.367Z,4.37
2023-02-28T12:46:35.745Z,3.10
2023-02-28T12:49:05.080Z,3.10
2023-02-28T12:51:33.900Z,3.10
2023-02-28T12:54:06.355Z,3.67
2023-02-28T12:56:39.506Z,3.70
2023-02-28T12:59:10.261Z,3.70
2023-02-28T13:01:44.177Z,2.63
2023-02-28T13:04:42.805Z,4.20
2023-02-28T13:07:14.000Z,3.57
2023-02-28T13:09:42.319Z,3.67
2023-02-28T13:12:16.768Z,3.43
2023-02-28T13:14:45.145Z,2.80
2023-02-28T13:17:14.244Z,3.63
2023-02-28T13:19:43.790Z,4.53
2023-02-28T13:22:19.748Z,3.20
2023-02-28T13:24:48.895Z,2.50
2023-02-28T13:27:35.138Z,3.10
2023-02-28T13:30:06.161Z,2.70
2023-02-28T13:32:37.824Z,2.93
2023-02-28T13:35:15.954Z,2.37
2023-02-28T13:37:47.389Z,3.10
2023-02-28T13:40:38.192Z,4.60
2023-02-28T13:43:08.713Z,4.10
2023-02-28T13:45:40.612Z,2.40
2023-02-28T13:48:18.365Z,3.83
2023-02-28T13:50:47.187Z,2.67
2023-02-28T13:53:37.114Z,4.00
2023-02-28T13:56:07.172Z,4.27
2023-02-28T13:58:40.252Z,4.33
2023-02-28T14:01:18.034Z,3.00
2023-02-28T14:04:00.205Z,3.70
2023-02-28T14:06:29.313Z,3.80
2023-02-28T14:08:59.189Z,3.40
2023-02-28T14:11:28.708Z,2.57
2023-02-28T14:13:57.250Z,3.13
2023-02-28T14:16:28.658Z,4.30
2023-02-28T14:18:58.704Z,3.63
2023-02-28T14:21:27.531Z,2.50
2023-02-28T14:24:22.362Z,4.60
2023-02-28T14:27:01.701Z,5.87
2023-02-28T14:29:33.358Z,6.07
2023-02-28T14:32:04.563Z,2.70
2023-02-28T14:34:39.323Z,2.70
2023-02-28T14:37:09.056Z,5.30
2023-02-28T14:39:37.986Z,4.50
2023-02-28T14:42:26.418Z,4.40
2023-02-28T14:44:57.451Z,3.03
2023-02-28T14:47:28.328Z,5.43
2023-02-28T14:49:56.899Z,4.80
2023-02-28T14:52:25.763Z,3.77
2023-02-28T14:54:54.765Z,3.33
2023-02-28T14:57:24.112Z,3.83
2023-02-28T14:59:59.650Z,3.93
2023-02-28T15:02:29.475Z,3.17
2023-02-28T15:04:58.649Z,2.87
2023-02-28T15:07:31.746Z,4.10
2023-02-28T15:10:24.020Z,4.87
2023-02-28T15:12:54.130Z,4.27
2023-02-28T15:15:31.705Z,5.80
2023-02-28T15:18:09.987Z,3.03
2023-02-28T15:20:38.754Z,2.93
2023-02-28T15:23:07.409Z,4.50
2023-02-28T15:25:36.091Z,4.00
2023-02-28T15:28:04.878Z,4.63
2023-02-28T15:30:33.712Z,3.27
2023-02-28T15:33:06.125Z,4.97
2023-02-28T15:35:36.081Z,2.90
2023-02-28T15:38:05.475Z,3.73
2023-02-28T15:40:34.638Z,4.77
2023-02-28T15:43:06.116Z,5.97
2023-02-28T15:45:39.513Z,5.20
2023-02-28T15:48:14.196Z,3.43
2023-02-28T15:50:44.854Z,7.03
2023-02-28T15:53:17.193Z,5.87
2023-02-28T15:55:45.632Z,3.77
2023-02-28T15:58:14.640Z,5.30
2023-02-28T16:00:43.030Z,4.07
2023-02-28T16:03:27.330Z,3.80
2023-02-28T16:06:14.463Z,4.37
2023-02-28T16:08:43.026Z,4.03
2023-02-28T16:11:11.617Z,3.77
2023-02-28T16:13:40.029Z,4.40
2023-02-28T16:16:08.661Z,3.87
2023-02-28T16:18:37.118Z,4.13
2023-02-28T16:21:05.815Z,3.63
2023-02-28T16:23:35.687Z,4.67
2023-02-28T16:26:05.522Z,4.73
2023-02-28T16:28:34.717Z,4.20
2023-02-28T16:31:03.715Z,3.93
2023-02-28T16:33:32.281Z,4.03
2023-02-28T16:36:00.788Z,4.00
2023-02-28T16:38:29.336Z,3.47
2023-02-28T16:40:59.262Z,3.57
2023-02-28T16:43:28.048Z,4.07
2023-02-28T16:45:58.769Z,5.77
2023-02-28T16:48:28.211Z,4.43
2023-02-28T16:50:56.630Z,3.70
2023-02-28T16:53:25.220Z,3.63
2023-02-28T16:55:53.710Z,4.53
2023-02-28T16:58:26.625Z,5.40
2023-02-28T17:00:55.155Z,4.47
2023-02-28T17:03:32.712Z,4.27
2023-02-28T17:06:02.248Z,4.33
2023-02-28T17:08:30.874Z,4.23
2023-02-28T17:10:59.393Z,6.57
2023-02-28T17:13:29.512Z,4.53
2023-02-28T17:15:58.038Z,6.20
2023-02-28T17:18:27.766Z,6.23
2023-02-28T17:20:56.651Z,7.00
2023-02-28T17:23:26.272Z,4.47
2023-02-28T17:25:57.803Z,5.10
2023-02-28T17:28:27.150Z,5.37
2023-02-28T17:30:57.075Z,4.07
2023-02-28T17:33:26.354Z,5.13
2023-02-28T17:35:54.899Z,7.13
2023-02-28T17:38:24.180Z,4.07
2023-02-28T17:40:58.040Z,5.13
2023-02-28T17:43:26.764Z,4.97
2023-02-28T17:45:55.376Z,5.53
2023-02-28T17:48:25.403Z,6.20
2023-02-28T17:50:53.883Z,8.87
2023-02-28T17:53:24.136Z,4.97
2023-02-28T17:55:52.720Z,6.80
2023-02-28T17:58:21.308Z,6.20
2023-02-28T18:00:54.804Z,4.93
2023-02-28T18:03:26.972Z,6.00
2023-02-28T18:05:57.529Z,7.13
2023-02-28T18:08:27.147Z,8.30
2023-02-28T18:10:55.712Z,6.60
2023-02-28T18:13:24.237Z,6.20
2023-02-28T18:15:52.874Z,7.17
2023-02-28T18:18:22.336Z,6.30
2023-02-28T18:20:53.245Z,8.60
2023-02-28T18:23:22.225Z,8.90
2023-02-28T18:25:50.742Z,7.83
2023-02-28T18:28:19.448Z,6.57
2023-02-28T18:30:47.874Z,7.87
2023-02-28T18:33:16.375Z,7.63
2023-02-28T18:35:44.860Z,7.83
2023-02-28T18:38:15.210Z,6.83
2023-02-28T18:40:43.684Z,6.17
2023-02-28T18:43:12.489Z,9.03
2023-02-28T18:45:41.818Z,8.30
2023-02-28T18:48:10.504Z,6.27
2023-02-28T18:50:39.665Z,6.27
2023-02-28T18:53:08.516Z,7.17
2023-02-28T18:55:38.558Z,7.47
2023-02-28T18:58:07.058Z,7.90
2023-02-28T19:00:35.802Z,8.43
2023-02-28T19:03:04.296Z,7.17
2023-02-28T19:05:34.661Z,9.40
2023-02-28T19:08:03.298Z,9.27
2023-02-28T19:10:31.777Z,12.93
2023-02-28T19:13:01.691Z,9.70
2023-02-28T19:15:30.157Z,10.50
2023-02-28T19:17:58.917Z,10.33
2023-02-28T19:20:27.520Z,7.33
2023-02-28T19:22:56.014Z,7.93
2023-02-28T19:25:24.835Z,11.53
2023-02-28T19:27:54.288Z,7.70
2023-02-28T19:30:24.632Z,8.73
2023-02-28T19:32:53.061Z,7.87
2023-02-28T19:35:21.865Z,7.30
2023-02-28T19:37:50.769Z,6.93
2023-02-28T19:40:19.546Z,9.53
2023-02-28T19:42:48.203Z,13.17
2023-02-28T19:45:16.812Z,11.07
2023-02-28T19:47:46.682Z,9.53
2023-02-28T19:50:15.516Z,9.07
2023-02-28T19:52:44.925Z,7.47
2023-02-28T19:55:13.968Z,8.10
2023-02-28T19:57:42.706Z,9.63
2023-02-28T20:00:11.803Z,10.87
2023-02-28T20:02:40.524Z,11.10
2023-02-28T20:05:11.039Z,12.40
2023-02-28T20:07:39.598Z,8.90
2023-02-28T20:10:08.460Z,10.63
2023-02-28T20:12:37.030Z,9.83
2023-02-28T20:15:06.045Z,10.70
2023-02-28T20:17:34.543Z,11.17
2023-02-28T20:20:03.029Z,10.67
2023-02-28T20:22:33.188Z,9.00
2023-02-28T20:25:01.949Z,11.23
2023-02-28T20:27:32.631Z,9.57
2023-02-28T20:30:01.170Z,12.47
2023-02-28T20:32:29.606Z,10.17
2023-02-28T20:34:58.109Z,9.47
2023-02-28T20:37:26.795Z,12.67
2023-02-28T20:39:56.630Z,11.87
2023-02-28T20:42:25.289Z,11.37
2023-02-28T20:44:53.767Z,10.67
2023-02-28T20:47:22.131Z,12.67
2023-02-28T20:49:50.672Z,13.83
2023-02-28T20:52:19.086Z,12.20
2023-02-28T20:54:47.630Z,13.60
2023-02-28T20:57:17.535Z,11.23
2023-02-28T20:59:46.064Z,14.03
2023-02-28T21:02:15.425Z,10.67
2023-02-28T21:04:43.959Z,12.90
2023-02-28T21:07:12.477Z,13.27
2023-02-28T21:09:41.253Z,13.40
2023-02-28T21:12:09.754Z,12.23
2023-02-28T21:14:39.704Z,11.80
2023-02-28T21:17:10.447Z,11.80
2023-02-28T21:19:38.967Z,14.90
2023-02-28T21:22:07.698Z,13.10
2023-02-28T21:24:36.300Z,12.77
2023-02-28T21:27:04.979Z,11.17
2023-02-28T21:29:33.603Z,12.33
2023-02-28T21:32:03.731Z,12.80
2023-02-28T21:34:32.385Z,12.50
2023-02-28T21:37:01.097Z,11.73
2023-02-28T21:39:30.291Z,15.87
2023-02-28T21:42:04.101Z,12.47
2023-02-28T21:44:34.642Z,12.90
2023-02-28T21:47:05.445Z,17.87
2023-02-28T21:49:34.054Z,22.17
2023-02-28T21:52:03.089Z,15.70
2023-02-28T21:54:31.756Z,14.07
2023-02-28T21:57:01.972Z,12.57
2023-02-28T21:59:30.985Z,16.07
2023-02-28T22:01:59.597Z,12.70
2023-02-28T22:04:29.405Z,12.87
2023-02-28T22:06:58.374Z,13.43
2023-02-28T22:09:26.981Z,17.47
2023-02-28T22:11:55.823Z,17.70
2023-02-28T22:14:24.228Z,16.43
2023-02-28T22:16:54.891Z,16.50
2023-02-28T22:19:24.329Z,14.87
2023-02-28T22:21:57.326Z,15.90
2023-02-28T22:24:25.828Z,15.77
2023-02-28T22:26:54.405Z,13.73
2023-02-28T22:29:22.969Z,13.13
2023-02-28T22:31:51.433Z,14.07
2023-02-28T22:34:20.074Z,16.93
2023-02-28T22:36:48.548Z,15.57
2023-02-28T22:39:18.843Z,15.37
2023-02-28T22:41:47.215Z,14.33
2023-02-28T22:44:16.530Z,15.27
2023-02-28T22:46:45.168Z,15.97
2023-02-28T22:49:13.760Z,15.70
2023-02-28T22:51:42.325Z,12.20
2023-02-28T22:54:10.953Z,16.43
2023-02-28T22:56:40.924Z,16.53
2023-02-28T22:59:09.342Z,17.80
2023-02-28T23:01:38.005Z,12.57
2023-02-28T23:04:07.120Z,14.77
2023-02-28T23:06:38.067Z,17.77
2023-02-28T23:09:07.271Z,17.13
2023-02-28T23:11:36.211Z,20.30
2023-02-28T23:14:06.298Z,16.07
2023-02-28T23:16:35.534Z,17.17
2023-02-28T23:19:04.622Z,15.27
2023-02-28T23:21:33.340Z,18.80
2023-02-28T23:24:03.326Z,14.70
2023-02-28T23:26:32.190Z,14.43
2023-02-28T23:29:01.244Z,18.47
2023-02-28T23:31:31.556Z,16.20
2023-02-28T23:34:01.011Z,15.13
2023-02-28T23:36:30.308Z,15.77
2023-02-28T23:38:59.167Z,15.83
2023-02-28T23:41:27.730Z,15.20
2023-02-28T23:43:56.263Z,15.87
2023-02-28T23:46:25.430Z,14.63
2023-02-28T23:48:55.360Z,15.67
2023-02-28T23:51:23.885Z,15.77
2023-02-28T23:53:53.077Z,17.43
2023-02-28T23:56:22.447Z,15.77
2023-02-28T23:58:51.068Z,15.07
